M I D A S
Marine Information and Data Acquisition System
Tripno 684 of the Zeeleeuw from 2004-04-19 06:35:39 to 2004-04-19 14:55:05
Back to CruiseResearch ActivitiesStationsMapUnderway DataData graphs

EquipmentUnitsComment
TimeDGPSUTC
LatitudeDGPSDM.mWGS84
LongitudeDGPSDM.mWGS84
HeadingGyrodeg 
SOGDGPSknotsSpeed over ground
COGDGPSdegCourse over ground
DepthEcho soundermeters200 kHz
Missing or incorrect values are displayed as -999
Navigation data collected by the RV Zeeleeuw from 2004-04-19 06:35:39 to 2004-04-19 14:55:05
Time Latitude Longitude Heading SOG COG Depth
2004-04-19 06:36:40 51°13.667 2°55.793 93.4 4.5 275 -999
2004-04-19 06:37:39 51°13.677 2°55.771 42.3 1.9 19 9.8
2004-04-19 06:38:39 51°13.736 2°55.728 329.8 5 323 7.7
2004-04-19 06:39:39 51°13.83 2°55.632 337.4 7.7 333 8.3
2004-04-19 06:40:38 51°13.951 2°55.543 342 8.4 336 8.2
2004-04-19 06:41:38 51°14.084 2°55.451 340.8 8.9 334 8.8
2004-04-19 06:42:39 51°14.221 2°55.324 331 9.9 324 9.2
2004-04-19 06:43:39 51°14.336 2°55.115 311.5 11.1 305 8.9
2004-04-19 06:44:38 51°14.429 2°54.826 295.5 13.6 286 8.6
2004-04-19 06:45:39 51°14.399 2°54.457 255.8 14.2 249 7.8
2004-04-19 06:46:40 51°14.295 2°54.12 246.5 13.8 242 7.2
2004-04-19 06:47:39 51°14.196 2°53.793 250.8 14 246 7.2
2004-04-19 06:48:39 51°14.096 2°53.454 251.5 14.3 247 7.5
2004-04-19 06:49:39 51°13.976 2°53.124 239 14.5 236 7.8
2004-04-19 06:50:38 51°13.88 2°52.777 250 14.7 243 8.2
2004-04-19 06:51:39 51°13.763 2°52.427 251.8 14.7 247 8.4
2004-04-19 06:52:39 51°13.647 2°52.079 244.1 14.9 240 8.7
2004-04-19 06:53:40 51°13.531 2°51.721 245.3 15 240 8.7
2004-04-19 06:54:38 51°13.417 2°51.38 247.4 15.1 242 8.9
2004-04-19 06:55:38 51°13.296 2°51.029 246.3 15.1 242 9.1
2004-04-19 06:56:40 51°13.17 2°50.667 243.9 15.1 240 9.1
2004-04-19 06:57:39 51°13.046 2°50.327 243.4 15 240 9.3
2004-04-19 06:58:38 51°12.923 2°49.986 244 15.1 240 9.4
2004-04-19 06:59:40 51°12.795 2°49.625 243.9 15.2 241 9.6
2004-04-19 07:00:39 51°12.672 2°49.282 244.3 15.2 240 9.7
2004-04-19 07:01:38 51°12.55 2°48.937 244.5 15.2 241 9.9
2004-04-19 07:02:39 51°12.424 2°48.58 244.5 15.2 240 9.9
2004-04-19 07:03:40 51°12.297 2°48.223 244.1 15.2 241 10.1
2004-04-19 07:04:40 51°12.174 2°47.872 244.1 15.2 241 10.2
2004-04-19 07:05:39 51°12.054 2°47.527 244.4 15.2 241 10.1
2004-04-19 07:06:38 51°11.939 2°47.177 249.9 15.2 246 10.1
2004-04-19 07:07:38 51°11.836 2°46.809 249.5 15.2 246 10.2
2004-04-19 07:08:38 51°11.735 2°46.439 252.6 15.2 250 10.4
2004-04-19 07:09:40 51°11.683 2°46.031 263.4 15.2 258 10.6
2004-04-19 07:10:40 51°11.626 2°45.636 262.1 15.3 257 10.7
2004-04-19 07:11:40 51°11.569 2°45.24 262 15.3 257 10.7
2004-04-19 07:12:38 51°11.515 2°44.858 261.5 15.3 257 10.7
2004-04-19 07:13:38 51°11.458 2°44.465 261.5 15.3 257 10.7
2004-04-19 07:14:38 51°11.4 2°44.073 261.2 15.2 257 10.7
2004-04-19 07:15:38 51°11.344 2°43.682 261.2 15.1 257 10.7
2004-04-19 07:16:38 51°11.29 2°43.292 261.6 15.1 258 10.6
2004-04-19 07:17:40 51°11.234 2°42.891 261.6 14.9 258 10.6
2004-04-19 07:18:39 51°11.183 2°42.545 257.7 10.7 252 10.7
2004-04-19 07:19:38 51°11.143 2°42.331 264.5 7.6 260 10.6
2004-04-19 07:20:39 51°11.115 2°42.177 247.8 4.8 248 10.6
2004-04-19 07:21:39 51°11.095 2°42.092 252.2 1.2 260 10.7
2004-04-19 07:22:40 51°11.094 2°42.082 270 0.5 257 4.7
2004-04-19 07:23:38 51°11.092 2°42.067 278.1 0.7 269 10.7
2004-04-19 07:24:39 51°11.092 2°42.045 284.8 0.9 276 10.7
2004-04-19 07:25:39 51°11.094 2°42.02 288.8 1.1 278 10.6
2004-04-19 07:26:38 51°11.097 2°41.991 286.2 1.1 278 10.6
2004-04-19 07:27:39 51°11.098 2°41.96 279.5 1.2 274 10.6
2004-04-19 07:28:39 51°11.099 2°41.927 275.7 1.2 271 10.6
2004-04-19 07:29:40 51°11.1 2°41.892 273.1 1.3 273 10.6
2004-04-19 07:30:38 51°11.1 2°41.849 268.5 3 266 10.5
2004-04-19 07:31:38 51°11.064 2°41.653 254.9 11.4 251 10.5
2004-04-19 07:32:40 51°10.994 2°41.298 258.1 14.4 255 10.6
2004-04-19 07:33:39 51°10.933 2°40.931 259.6 14.7 255 10.9
2004-04-19 07:34:39 51°10.869 2°40.553 259 14.8 255 11.5
2004-04-19 07:35:40 51°10.804 2°40.168 259.6 14.7 255 12.1
2004-04-19 07:36:38 51°10.743 2°39.804 259.2 14.7 255 12.7
2004-04-19 07:37:40 51°10.664 2°39.422 254.4 14.7 251 13.4
2004-04-19 07:38:40 51°10.584 2°39.053 255.3 14.7 251 14.3
2004-04-19 07:39:40 51°10.504 2°38.683 255.4 14.8 251 14.9
2004-04-19 07:40:40 51°10.424 2°38.312 255.5 14.8 251 15.5
2004-04-19 07:41:38 51°10.347 2°37.952 255.1 14.9 251 15.8
2004-04-19 07:42:38 51°10.266 2°37.579 255.3 14.9 251 16.2
2004-04-19 07:43:39 51°10.185 2°37.198 257.2 14.9 253 16.4
2004-04-19 07:44:40 51°10.116 2°36.815 258.9 14.9 254 16.2
2004-04-19 07:45:39 51°10.05 2°36.444 259.1 14.8 255 16.4
2004-04-19 07:46:40 51°10.068 2°36.06 295.9 14.2 292 15.6
2004-04-19 07:47:40 51°10.233 2°35.835 348.3 12.7 343 9.2
2004-04-19 07:48:40 51°10.443 2°35.8 8.6 12.9 1 9.4
2004-04-19 07:49:40 51°10.644 2°35.892 31 12.6 26 9
2004-04-19 07:50:39 51°10.826 2°36.048 33.6 12.7 27 9.4
2004-04-19 07:51:40 51°11.017 2°36.206 33.4 12.7 27 9.8
2004-04-19 07:52:39 51°11.202 2°36.355 33.2 12.7 26 9.8
2004-04-19 07:53:39 51°11.392 2°36.505 33.6 12.7 26 9.8
2004-04-19 07:54:39 51°11.581 2°36.656 33.1 12.7 27 9.7
2004-04-19 07:55:40 51°11.76 2°36.844 42.6 12.7 36 9.5
2004-04-19 07:56:39 51°11.93 2°37.033 41.3 12.7 36 9.6
2004-04-19 07:57:40 51°12.107 2°37.227 40.7 12.7 35 9.9
2004-04-19 07:58:38 51°12.276 2°37.409 39.9 12.7 34 10.1
2004-04-19 07:59:39 51°12.451 2°37.606 40.9 12.7 35 10.5
2004-04-19 08:00:40 51°12.632 2°37.788 37 12.6 31 11.3
2004-04-19 08:01:38 51°12.806 2°37.956 37.8 12.7 31 11.8
2004-04-19 08:02:40 51°13.001 2°38.109 31.2 12.7 24 12.4
2004-04-19 08:03:39 51°13.19 2°38.246 32.3 12.8 24 12.5
2004-04-19 08:04:38 51°13.378 2°38.385 32.3 12.7 25 12.8
2004-04-19 08:05:40 51°13.575 2°38.534 32.6 12.8 26 12.8
2004-04-19 08:06:38 51°13.761 2°38.67 31.2 12.7 23 12.1
2004-04-19 08:07:40 51°13.98 2°38.71 6.8 12.9 359 10.5
2004-04-19 08:08:40 51°14.19 2°38.61 346.4 13.6 335 14.6
2004-04-19 08:09:39 51°14.387 2°38.45 343.4 13.5 334 17.3
2004-04-19 08:10:40 51°14.589 2°38.292 344.5 13.1 335 15
2004-04-19 08:11:38 51°14.78 2°38.146 345.4 13.2 334 14.3
2004-04-19 08:12:40 51°14.985 2°37.995 346.6 13.1 337 11.1
2004-04-19 08:13:38 51°15.174 2°37.844 340.6 13.4 330 9.2
2004-04-19 08:14:39 51°15.37 2°37.657 339.7 13.6 330 9.7
2004-04-19 08:15:38 51°15.565 2°37.477 340.5 13.3 331 9.7
2004-04-19 08:16:40 51°15.771 2°37.294 339.6 13.9 331 10.5
2004-04-19 08:17:38 51°15.965 2°37.125 340 13.9 331 12.7
2004-04-19 08:18:40 51°16.171 2°36.938 340.3 13.6 330 23.5
2004-04-19 08:19:38 51°16.37 2°36.811 356.2 13.1 347 25.6
2004-04-19 08:20:40 51°16.539 2°36.793 356 7 340 25.3
2004-04-19 08:21:39 51°16.61 2°36.761 25 2.2 3 25.4
2004-04-19 08:22:39 51°16.608 2°36.743 56.8 0.7 246 25.4
2004-04-19 08:23:40 51°16.601 2°36.732 81.4 0.6 205 25.4
2004-04-19 08:24:40 51°16.591 2°36.724 94.3 0.8 206 25.5
2004-04-19 08:25:40 51°16.579 2°36.714 108.1 0.8 212 25.5
2004-04-19 08:26:39 51°16.565 2°36.704 115.6 0.9 205 25.7
2004-04-19 08:27:40 51°16.55 2°36.694 122 1.1 200 25.6
2004-04-19 08:28:40 51°16.535 2°36.685 129 1 205 25.9
2004-04-19 08:29:38 51°16.522 2°36.674 132.2 1 208 25.8
2004-04-19 08:30:40 51°16.506 2°36.665 134 1.3 172 25.8
2004-04-19 08:31:40 51°16.498 2°36.735 57.3 3.6 48 25.8
2004-04-19 08:32:38 51°16.581 2°36.685 337.3 8.4 322 25.7
2004-04-19 08:33:38 51°16.701 2°36.487 325.3 11.2 313 25.6
2004-04-19 08:34:40 51°16.838 2°36.263 329.3 11.5 316 25.8
2004-04-19 08:35:38 51°16.984 2°36.041 329.2 13.6 318 23.5
2004-04-19 08:36:40 51°17.158 2°35.784 327.2 13.8 317 16.3
2004-04-19 08:37:40 51°17.322 2°35.53 327.6 13.8 317 11.4
2004-04-19 08:38:38 51°17.486 2°35.29 328 13.9 319 10.7
2004-04-19 08:39:40 51°17.672 2°35.044 330.3 14.4 320 15.1
2004-04-19 08:40:39 51°17.849 2°34.806 329.9 14 318 17
2004-04-19 08:41:38 51°18.025 2°34.567 330.8 14.1 319 26.6
2004-04-19 08:42:40 51°18.186 2°34.277 320.3 14.2 310 26.1
2004-04-19 08:43:40 51°18.327 2°33.974 314.7 14.3 304 23.9
2004-04-19 08:44:38 51°18.457 2°33.673 314.3 14.2 304 17.1
2004-04-19 08:45:39 51°18.594 2°33.36 314.5 14.3 304 20.6
2004-04-19 08:46:39 51°18.73 2°33.056 314.5 14 305 25.5
2004-04-19 08:47:39 51°18.859 2°32.747 315.2 14.1 304 27.1
2004-04-19 08:48:40 51°18.991 2°32.43 315.1 14.1 304 29.5
2004-04-19 08:49:40 51°19.119 2°32.12 314.7 14.1 302 29.4
2004-04-19 08:50:39 51°19.244 2°31.811 315.2 14 303 29.7
2004-04-19 08:51:40 51°19.373 2°31.49 314.6 14.2 301 29.4
2004-04-19 08:52:40 51°19.501 2°31.175 315.2 14.1 303 29.4
2004-04-19 08:53:39 51°19.619 2°30.857 307.4 14.3 295 22.6
2004-04-19 08:54:40 51°19.721 2°30.504 306.3 14.5 295 16.7
2004-04-19 08:55:39 51°19.797 2°30.242 304.8 9.1 294 12.7
2004-04-19 08:56:40 51°19.884 2°30.096 348.3 6.9 331 11.8
2004-04-19 08:57:40 51°19.98 2°29.976 330 8.2 317 12.3
2004-04-19 08:58:40 51°20.071 2°29.864 351.7 4.3 335 19.3
2004-04-19 08:59:40 51°20.061 2°29.829 30.9 3.5 218 -999
2004-04-19 09:00:40 51°20.003 2°29.766 36.2 3.8 217 21.5
2004-04-19 09:01:40 51°20.007 2°29.775 56.4 3.3 46 21.4
2004-04-19 09:02:38 51°20.04 2°29.839 69.8 2.8 65 18.2
2004-04-19 09:03:38 51°20.042 2°29.882 92.5 0.6 111 16.6
2004-04-19 09:04:39 51°20.038 2°29.897 112.2 0.6 127 14.7
2004-04-19 09:05:38 51°20.031 2°29.906 120.5 0.5 140 12.3
2004-04-19 09:06:39 51°20.023 2°29.912 127.7 0.5 156 13.4
2004-04-19 09:07:40 51°20.014 2°29.914 135.7 0.5 182 13.8
2004-04-19 09:08:40 51°20.007 2°29.913 139.2 0.5 194 13.8
2004-04-19 09:09:40 51°20.001 2°29.909 140.2 0.4 217 13.4
2004-04-19 09:10:39 51°19.995 2°29.904 144.9 0.4 206 12.7
2004-04-19 09:11:39 51°19.989 2°29.9 148.7 0.4 193 12.3
2004-04-19 09:12:39 51°19.982 2°29.895 154.5 0.5 204 11.8
2004-04-19 09:13:40 51°19.975 2°29.889 159.5 0.5 204 11.4
2004-04-19 09:14:39 51°19.956 2°29.896 148.7 2.8 151 13.4
2004-04-19 09:15:39 51°19.943 2°30.001 71.3 5.8 64 13.3
2004-04-19 09:16:39 51°20.052 2°30.195 57.1 12.3 53 12.7
2004-04-19 09:17:40 51°20.163 2°30.492 65.3 13.1 62 12.6
2004-04-19 09:18:39 51°20.263 2°30.794 67.3 12.9 63 15.1
2004-04-19 09:19:40 51°20.362 2°31.112 66.8 13.2 63 16.1
2004-04-19 09:20:39 51°20.456 2°31.423 69.6 13 68 20.3
2004-04-19 09:21:40 51°20.558 2°31.736 65.5 12.9 62 23.6
2004-04-19 09:22:39 51°20.654 2°32.037 65.2 12.9 61 27.7
2004-04-19 09:23:38 51°20.744 2°32.333 66.5 12.7 64 30.6
2004-04-19 09:24:38 51°20.835 2°32.634 66 12.4 64 30.2
2004-04-19 09:25:40 51°20.931 2°32.944 68.3 12.8 65 30
2004-04-19 09:26:40 51°21.02 2°33.257 67.5 13 64 30.7
2004-04-19 09:27:39 51°21.111 2°33.558 68 12.5 65 31.9
2004-04-19 09:28:38 51°21.201 2°33.858 69.4 12.7 67 32.4
2004-04-19 09:29:40 51°21.289 2°34.183 69.6 12.8 67 30.6
2004-04-19 09:30:40 51°21.384 2°34.49 67.1 13.1 64 31.3
2004-04-19 09:31:38 51°21.474 2°34.788 67.4 12.9 65 32.2
2004-04-19 09:32:39 51°21.566 2°35.109 66.7 12.8 63 31.4
2004-04-19 09:33:40 51°21.664 2°35.419 68.3 12.9 65 30.8
2004-04-19 09:34:39 51°21.756 2°35.727 66.6 13 64 33
2004-04-19 09:35:38 51°21.846 2°36.034 68.9 13.2 64 31.9
2004-04-19 09:36:40 51°21.936 2°36.366 69 13.1 67 31.8
2004-04-19 09:37:39 51°22.027 2°36.675 69.1 13.4 67 31.2
2004-04-19 09:38:39 51°22.123 2°36.989 65.8 13.3 64 31.9
2004-04-19 09:39:39 51°22.216 2°37.312 67.5 13.6 65 31.1
2004-04-19 09:40:39 51°22.314 2°37.626 64.2 13 64 31.6
2004-04-19 09:41:39 51°22.405 2°37.945 67.5 13 66 30.5
2004-04-19 09:42:39 51°22.499 2°38.256 64.8 12.7 62 29.5
2004-04-19 09:43:40 51°22.589 2°38.577 68.9 13.2 68 29.9
2004-04-19 09:44:39 51°22.684 2°38.889 63.8 13.5 61 30.3
2004-04-19 09:45:40 51°22.787 2°39.21 65.3 13.6 62 30.5
2004-04-19 09:46:40 51°22.89 2°39.518 63.8 13.1 64 30.3
2004-04-19 09:47:40 51°22.991 2°39.827 63.8 13.2 63 30.4
2004-04-19 09:48:38 51°23.095 2°40.125 63.1 13.4 62 29.6
2004-04-19 09:49:40 51°23.208 2°40.445 65.3 13.6 62 30.1
2004-04-19 09:50:40 51°23.316 2°40.746 61.3 13.1 60 29.7
2004-04-19 09:51:40 51°23.424 2°41.059 62.8 13.8 61 28.7
2004-04-19 09:52:39 51°23.535 2°41.363 65.6 13.2 58 30.3
2004-04-19 09:53:39 51°23.643 2°41.68 64.2 13.9 62 27.9
2004-04-19 09:54:38 51°23.751 2°41.99 63.8 13.4 62 25.3
2004-04-19 09:55:38 51°23.854 2°42.313 67.4 13.4 64 24.7
2004-04-19 09:56:39 51°23.967 2°42.629 62.4 13.1 61 27.1
2004-04-19 09:57:39 51°24.075 2°42.938 63.6 13.6 61 26.3
2004-04-19 09:58:40 51°24.187 2°43.253 63.2 13.6 63 25.6
2004-04-19 09:59:40 51°24.296 2°43.571 61.2 13.6 58 26.6
2004-04-19 10:00:38 51°24.4 2°43.878 64.5 13.5 62 26.3
2004-04-19 10:01:40 51°24.515 2°44.194 62.6 13.1 61 22.2
2004-04-19 10:02:40 51°24.625 2°44.501 61 13.2 59 26.7
2004-04-19 10:03:40 51°24.737 2°44.817 65.1 14 62 27.6
2004-04-19 10:04:40 51°24.843 2°45.138 64.4 13.6 61 26.7
2004-04-19 10:05:40 51°24.958 2°45.455 60.8 13.6 57 25.9
2004-04-19 10:06:40 51°25.072 2°45.763 59.6 13.1 58 25.7
2004-04-19 10:07:38 51°25.178 2°46.069 63.6 13.9 63 25.7
2004-04-19 10:08:40 51°25.295 2°46.403 63.4 13.9 60 26
2004-04-19 10:09:40 51°25.395 2°46.73 69 13.8 67 25.6
2004-04-19 10:10:40 51°25.485 2°47.07 69.9 13.7 68 25.9
2004-04-19 10:11:40 51°25.578 2°47.407 69.1 14.4 65 25.8
2004-04-19 10:12:40 51°25.676 2°47.746 65.4 14.3 63 24.5
2004-04-19 10:13:40 51°25.767 2°48.087 68.7 13.6 67 24.2
2004-04-19 10:14:39 51°25.851 2°48.315 47.9 7.6 46 24.1
2004-04-19 10:15:38 51°25.932 2°48.401 24.7 4.7 25 24.1
2004-04-19 10:16:40 51°25.985 2°48.427 5 1.3 11 24.3
2004-04-19 10:17:40 51°25.984 2°48.441 354.2 0.6 84 24.4
2004-04-19 10:18:40 51°25.989 2°48.456 338.7 0.4 50 24.2
2004-04-19 10:19:38 51°25.994 2°48.465 324.5 0.5 48 24.6
2004-04-19 10:20:40 51°26 2°48.474 315.2 0.5 45 24.6
2004-04-19 10:21:40 51°26.005 2°48.486 309.9 0.5 62 24.6
2004-04-19 10:22:39 51°26.01 2°48.5 310.6 0.7 55 24.6
2004-04-19 10:23:40 51°26.016 2°48.516 310.9 0.8 52 24.2
2004-04-19 10:24:40 51°26.024 2°48.531 309 0.8 60 24.1
2004-04-19 10:25:39 51°26.029 2°48.549 311.1 0.7 60 24.8
2004-04-19 10:26:40 51°26.036 2°48.566 312.5 0.7 54 25
2004-04-19 10:27:40 51°26.043 2°48.583 312.6 0.8 53 25
2004-04-19 10:28:40 51°26.08 2°48.56 332 5.2 335 24.3
2004-04-19 10:29:40 51°26.192 2°48.612 43.9 8.9 46 24.1
2004-04-19 10:30:40 51°26.227 2°48.921 88.5 13.8 81 24.7
2004-04-19 10:31:40 51°26.261 2°49.291 84.7 14.1 82 24.2
2004-04-19 10:32:40 51°26.3 2°49.66 81.8 13.9 77 23.9
2004-04-19 10:33:40 51°26.342 2°50.036 83.4 14.5 80 24.3
2004-04-19 10:34:40 51°26.39 2°50.412 84.6 14.6 82 24.6
2004-04-19 10:35:39 51°26.439 2°50.787 83 14.5 76 24.4
2004-04-19 10:36:39 51°26.492 2°51.161 82.7 14.2 78 27.9
2004-04-19 10:37:40 51°26.541 2°51.538 82.9 14.3 79 26.7
2004-04-19 10:38:40 51°26.593 2°51.909 81.8 14.3 77 27.9
2004-04-19 10:39:40 51°26.64 2°52.282 83 14.5 77 27.7
2004-04-19 10:40:39 51°26.682 2°52.657 85.4 14.8 81 28.9
2004-04-19 10:41:40 51°26.734 2°53.039 80.4 14.4 80 30.4
2004-04-19 10:42:40 51°26.791 2°53.411 82.5 14.6 76 29.5
2004-04-19 10:43:38 51°26.846 2°53.775 81.2 14.3 76 26.8
2004-04-19 10:44:38 51°26.905 2°54.152 80.4 14.5 74 24.9
2004-04-19 10:45:40 51°26.972 2°54.528 81.2 14.2 74 27.9
2004-04-19 10:46:40 51°27.037 2°54.891 81.6 14.4 75 28.3
2004-04-19 10:47:40 51°27.095 2°55.259 80.9 14 77 29.1
2004-04-19 10:48:40 51°27.159 2°55.626 79.5 14.3 76 31.1
2004-04-19 10:49:39 51°27.223 2°55.991 79.9 14.5 74 29.6
2004-04-19 10:50:38 51°27.288 2°56.346 78.2 13.8 73 28.4
2004-04-19 10:51:40 51°27.348 2°56.722 83 14.3 78 19.9
2004-04-19 10:52:40 51°27.407 2°57.093 81.3 13.8 77 28
2004-04-19 10:53:40 51°27.467 2°57.46 80.5 14.5 75 27.5
2004-04-19 10:54:40 51°27.524 2°57.83 81.2 14.5 77 25.7
2004-04-19 10:55:40 51°27.582 2°58.199 78.1 14 74 22.1
2004-04-19 10:56:40 51°27.64 2°58.572 79.3 14.5 78 20.5
2004-04-19 10:57:40 51°27.698 2°58.949 80 14.7 75 19.8
2004-04-19 10:58:40 51°27.757 2°59.335 79 14.5 76 20.2
2004-04-19 10:59:40 51°27.826 2°59.708 78.7 14.6 76 20.8
2004-04-19 11:00:40 51°27.894 3°0.092 79.7 15.2 77 20.6
2004-04-19 11:01:40 51°27.96 3°0.475 77.4 14.9 72 22.9
2004-04-19 11:02:40 51°28.022 3°0.86 83.1 15 80 23.3
2004-04-19 11:03:40 51°28.059 3°1.251 84.3 14.7 80 24.2
2004-04-19 11:04:40 51°28.093 3°1.639 88.1 14.9 81 25.1
2004-04-19 11:05:40 51°28.13 3°2.033 88.1 14.9 81 25.3
2004-04-19 11:06:40 51°28.174 3°2.418 83.9 14.8 79 25.3
2004-04-19 11:07:40 51°28.216 3°2.812 85.5 15.1 81 25.1
2004-04-19 11:08:40 51°28.25 3°3.126 78.6 9.3 74 24.7
2004-04-19 11:09:40 51°28.311 3°3.312 54.8 7.2 55 24.6
2004-04-19 11:10:40 51°28.341 3°3.466 108.8 5.5 100 24.3
2004-04-19 11:11:40 51°28.286 3°3.546 193.5 4 173 24
2004-04-19 11:12:38 51°28.256 3°3.512 251.1 1.1 254 24.1
2004-04-19 11:13:40 51°28.262 3°3.497 263.1 0.8 352 24.1
2004-04-19 11:14:40 51°28.278 3°3.505 271.2 1.1 29 24.2
2004-04-19 11:15:40 51°28.294 3°3.52 273.6 1.2 28 24.2
2004-04-19 11:16:40 51°28.311 3°3.535 277.2 1.4 25 24
2004-04-19 11:17:40 51°28.33 3°3.553 283.8 1.4 30 24.1
2004-04-19 11:18:40 51°28.351 3°3.571 291 1.4 27 24.5
2004-04-19 11:19:40 51°28.371 3°3.583 288.1 1.3 18 24.6
2004-04-19 11:20:40 51°28.393 3°3.567 275.3 2.4 292 24.7
2004-04-19 11:21:40 51°28.363 3°3.509 210.9 4.3 188 24.7
2004-04-19 11:22:40 51°28.265 3°3.647 135.6 11.4 125 23.8
2004-04-19 11:23:40 51°28.135 3°3.948 134 14.3 122 21.9
2004-04-19 11:24:40 51°27.996 3°4.261 133.9 14.6 125 19.5
2004-04-19 11:25:40 51°27.853 3°4.57 137.9 14.5 127 17.1
2004-04-19 11:26:39 51°27.708 3°4.872 137.8 14.6 129 14.9
2004-04-19 11:27:40 51°27.577 3°5.215 126.5 15.1 120 16.6
2004-04-19 11:28:40 51°27.454 3°5.559 127.6 14.7 122 16.2
2004-04-19 11:29:40 51°27.333 3°5.903 128.1 14.8 119 15.7
2004-04-19 11:30:40 51°27.212 3°6.25 128.9 14.7 119 15.2
2004-04-19 11:31:40 51°27.087 3°6.593 128.9 14.9 120 14.9
2004-04-19 11:32:40 51°26.964 3°6.94 129 15 120 14.1
2004-04-19 11:33:40 51°26.841 3°7.288 129.8 15 121 13.6
2004-04-19 11:34:40 51°26.718 3°7.636 127.2 14.9 119 12.9
2004-04-19 11:35:40 51°26.598 3°7.972 131 13.1 122 12.5
2004-04-19 11:36:40 51°26.567 3°8.211 92.7 7.7 90 13.5
2004-04-19 11:37:40 51°26.526 3°8.354 164.2 4.7 136 13.2
2004-04-19 11:38:40 51°26.479 3°8.382 221.7 2.1 174 12.9
2004-04-19 11:39:40 51°26.47 3°8.377 257 0.2 281 13.1
2004-04-19 11:40:40 51°26.474 3°8.378 260.3 0.3 20 13.1
2004-04-19 11:41:40 51°26.479 3°8.384 257.5 0.5 49 13.1
2004-04-19 11:42:39 51°26.484 3°8.398 257.2 0.7 56 13.2
2004-04-19 11:43:40 51°26.491 3°8.415 256.5 0.8 64 13.1
2004-04-19 11:44:40 51°26.499 3°8.437 256.5 1 56 13.4
2004-04-19 11:45:40 51°26.495 3°8.431 237.2 2.5 214 13.2
2004-04-19 11:46:39 51°26.418 3°8.46 162.6 8 139 12.7
2004-04-19 11:47:40 51°26.325 3°8.736 114.5 14.6 104 12.4
2004-04-19 11:48:40 51°26.258 3°9.12 113.9 15.1 106 11.4
2004-04-19 11:49:40 51°26.169 3°9.499 118.3 15 109 11
2004-04-19 11:50:40 51°26.072 3°9.876 119.2 15.4 113 10.7
2004-04-19 11:51:40 51°25.977 3°10.254 119.9 15.4 113 10.1
2004-04-19 11:52:40 51°25.881 3°10.628 119.5 15.3 114 10
2004-04-19 11:53:40 51°25.73 3°10.936 141.2 14.6 134 9.9
2004-04-19 11:54:40 51°25.562 3°11.224 141.4 14.8 132 10.8
2004-04-19 11:55:40 51°25.43 3°11.561 120.7 15.4 113 11.9
2004-04-19 11:56:40 51°25.396 3°11.966 99.5 15.5 96 12.3
2004-04-19 11:57:40 51°25.447 3°12.372 78.4 15.5 77 12.1
2004-04-19 11:58:40 51°25.497 3°12.778 85.2 15.6 81 11.7
2004-04-19 11:59:40 51°25.532 3°13.19 86.8 15.6 82 11.6
2004-04-19 12:00:40 51°25.565 3°13.598 85.1 15.4 81 11.2
2004-04-19 12:01:40 51°25.591 3°14.007 86.3 15.4 83 10.5
2004-04-19 12:02:40 51°25.613 3°14.414 89.2 15.5 86 10.7
2004-04-19 12:03:40 51°25.638 3°14.825 86.3 15.9 82 10.6
2004-04-19 12:04:40 51°25.667 3°15.237 87.9 15.7 84 10.7
2004-04-19 12:05:40 51°25.7 3°15.651 87.1 15.6 83 10.8
2004-04-19 12:06:40 51°25.725 3°16.07 89 15.7 84 10.8
2004-04-19 12:07:40 51°25.752 3°16.488 89 15.8 85 10.7
2004-04-19 12:08:40 51°25.781 3°16.908 88.4 16 83 10.7
2004-04-19 12:09:40 51°25.803 3°17.282 91.8 11.9 88 11.1
2004-04-19 12:10:40 51°25.787 3°17.548 96.2 9.5 90 11.3
2004-04-19 12:11:40 51°25.846 3°17.718 23.3 5.9 35 11.4
2004-04-19 12:12:40 51°25.908 3°17.73 314.3 2.4 345 11.3
2004-04-19 12:13:40 51°25.926 3°17.714 277.7 0.7 334 11.3
2004-04-19 12:14:40 51°25.934 3°17.715 274.4 0.5 22 11.2
2004-04-19 12:15:40 51°25.941 3°17.724 269.7 0.6 49 11.2
2004-04-19 12:16:40 51°25.946 3°17.741 260.3 0.8 73 11.4
2004-04-19 12:17:40 51°25.95 3°17.764 251.9 0.9 79 11.3
2004-04-19 12:18:40 51°25.953 3°17.791 245.2 1.1 85 11.3
2004-04-19 12:19:40 51°25.952 3°17.817 233.4 0.8 134 11.4
2004-04-19 12:20:40 51°25.889 3°17.763 225.2 8.1 216 11.3
2004-04-19 12:21:40 51°25.743 3°17.587 225.8 12.1 218 11.3
2004-04-19 12:22:40 51°25.583 3°17.379 226.3 12.5 219 12
2004-04-19 12:23:40 51°25.423 3°17.177 226.4 12.1 218 12.4
2004-04-19 12:24:40 51°25.276 3°16.964 232 11.9 223 13.2
2004-04-19 12:25:40 51°25.129 3°16.746 230.8 12.1 222 15.3
2004-04-19 12:26:40 51°24.981 3°16.531 231.7 12 224 16.6
2004-04-19 12:27:40 51°24.836 3°16.311 231.3 12.1 224 16.3
2004-04-19 12:28:40 51°24.687 3°16.088 231.3 12.3 223 20.7
2004-04-19 12:29:39 51°24.539 3°15.884 231.7 11.7 220 20.6
2004-04-19 12:30:40 51°24.39 3°15.68 231.9 11.6 222 18.3
2004-04-19 12:31:40 51°24.244 3°15.468 231.2 12 221 15.1
2004-04-19 12:32:40 51°24.096 3°15.254 231.3 12 222 14
2004-04-19 12:33:40 51°23.949 3°15.039 231.5 12 224 14.8
2004-04-19 12:34:40 51°23.802 3°14.82 231.6 12.1 223 14.3
2004-04-19 12:35:40 51°23.653 3°14.606 230.3 11.9 222 13.8
2004-04-19 12:36:40 51°23.507 3°14.395 231.9 11.8 222 14.1
2004-04-19 12:37:40 51°23.361 3°14.182 231.6 12 224 13.4
2004-04-19 12:38:40 51°23.214 3°13.967 231.8 12 223 13.6
2004-04-19 12:39:40 51°23.067 3°13.756 231.7 11.8 222 13.5
2004-04-19 12:40:40 51°22.923 3°13.546 231.6 10.6 222 13.7
2004-04-19 12:41:40 51°22.812 3°13.402 225.4 8 211 14.2
2004-04-19 12:42:40 51°22.702 3°13.32 218.8 5.8 199 14.7
2004-04-19 12:43:40 51°22.67 3°13.276 264.2 0.9 257 15
2004-04-19 12:44:40 51°22.679 3°13.275 287.8 0.9 16 14.9
2004-04-19 12:45:40 51°22.695 3°13.289 294.2 1.3 37 14.9
2004-04-19 12:46:40 51°22.712 3°13.314 292.6 1.4 47 14.8
2004-04-19 12:47:40 51°22.728 3°13.348 292.2 1.6 56 14.7
2004-04-19 12:48:40 51°22.742 3°13.385 294 1.8 61 14.4
2004-04-19 12:49:40 51°22.757 3°13.432 296.9 2 68 14.2
2004-04-19 12:50:40 51°22.772 3°13.466 287.7 1 356 14.3
2004-04-19 12:51:40 51°22.739 3°13.316 254 10.4 249 14.3
2004-04-19 12:52:40 51°22.672 3°13.036 255.2 11.5 252 15.1
2004-04-19 12:53:40 51°22.65 3°12.731 268.5 11.6 266 15.6
2004-04-19 12:54:40 51°22.633 3°12.423 267.6 11.6 264 16.2
2004-04-19 12:55:40 51°22.604 3°12.12 263.9 11.5 261 16.5
2004-04-19 12:56:40 51°22.575 3°11.817 264.1 11.5 261 17
2004-04-19 12:57:40 51°22.543 3°11.512 262 11.7 259 17.5
2004-04-19 12:58:40 51°22.503 3°11.211 261.3 11.6 259 17.9
2004-04-19 12:59:40 51°22.466 3°10.912 261.7 11.3 260 17.9
2004-04-19 13:00:40 51°22.432 3°10.621 261 11.1 259 19.6
2004-04-19 13:01:40 51°22.401 3°10.322 261.5 11.3 259 21
2004-04-19 13:02:40 51°22.361 3°10.03 261.2 11.4 259 16.1
2004-04-19 13:03:40 51°22.325 3°9.731 261.2 11.5 259 15.8
2004-04-19 13:04:40 51°22.279 3°9.431 257 11.6 254 15.5
2004-04-19 13:05:40 51°22.23 3°9.128 257 11.7 253 15.1
2004-04-19 13:06:40 51°22.172 3°8.833 257.8 11.6 255 14.8
2004-04-19 13:07:40 51°22.12 3°8.534 256.9 11.7 254 14.5
2004-04-19 13:08:40 51°22.068 3°8.231 257.1 11.9 254 14.4
2004-04-19 13:09:40 51°22.015 3°7.927 257.5 11.9 254 14.2
2004-04-19 13:10:40 51°21.962 3°7.623 257.5 11.8 255 14.2
2004-04-19 13:11:40 51°21.91 3°7.323 257.1 11.8 255 14
2004-04-19 13:12:40 51°21.86 3°7.022 257.6 11.7 255 13.8
2004-04-19 13:13:40 51°21.811 3°6.722 257.5 11.6 256 13.7
2004-04-19 13:14:40 51°21.756 3°6.428 253 11.4 251 13.6
2004-04-19 13:15:40 51°21.694 3°6.141 253.2 11.5 251 13.4
2004-04-19 13:16:40 51°21.632 3°5.85 253.8 11.7 251 13.3
2004-04-19 13:17:40 51°21.569 3°5.558 253.2 11.7 251 13.2
2004-04-19 13:18:40 51°21.507 3°5.264 253.3 11.7 252 13.2
2004-04-19 13:19:40 51°21.445 3°4.967 253 11.8 252 13.1
2004-04-19 13:20:40 51°21.383 3°4.668 253 11.9 252 13
2004-04-19 13:21:40 51°21.322 3°4.367 253.9 11.9 253 13
2004-04-19 13:22:40 51°21.261 3°4.066 253.2 11.9 252 12.9
2004-04-19 13:23:40 51°21.201 3°3.763 253.1 11.9 253 12.9
2004-04-19 13:24:40 51°21.141 3°3.458 253.2 12 253 12.8
2004-04-19 13:25:40 51°21.08 3°3.153 252.5 12 252 12.7
2004-04-19 13:26:40 51°21.019 3°2.848 253.4 12.1 253 12.7
2004-04-19 13:27:40 51°20.96 3°2.541 253.4 12.1 254 12.8
2004-04-19 13:28:40 51°20.904 3°2.232 253.7 12.1 254 12.8
2004-04-19 13:29:40 51°20.848 3°1.924 252.6 12.1 253 12.7
2004-04-19 13:30:40 51°20.784 3°1.62 250.7 12.1 251 12.6
2004-04-19 13:31:40 51°20.721 3°1.315 251.3 12 252 12.5
2004-04-19 13:32:40 51°20.658 3°1.012 251.5 12 251 12.5
2004-04-19 13:33:40 51°20.597 3°0.708 251.1 12 252 12.6
2004-04-19 13:34:40 51°20.536 3°0.404 251.1 12.1 252 12.6
2004-04-19 13:35:40 51°20.474 3°0.1 250.6 12 251 12.8
2004-04-19 13:36:40 51°20.413 2°59.795 251.6 12 253 12.7
2004-04-19 13:37:40 51°20.351 2°59.492 251.1 12 252 12.8
2004-04-19 13:38:40 51°20.287 2°59.187 251.5 12.2 252 12.8
2004-04-19 13:39:40 51°20.223 2°58.879 251.5 12.2 252 12.9
2004-04-19 13:40:40 51°20.157 2°58.572 250.6 12.3 251 13
2004-04-19 13:41:40 51°20.09 2°58.262 251.1 12.4 251 13.1
2004-04-19 13:42:40 51°20.024 2°57.951 251.1 12.4 251 13.2
2004-04-19 13:43:40 51°19.956 2°57.637 250.8 12.6 250 13.3
2004-04-19 13:44:40 51°19.888 2°57.321 251.9 12.5 251 13.5
2004-04-19 13:45:40 51°19.82 2°57.007 250.9 12.5 250 13.5
2004-04-19 13:46:40 51°19.752 2°56.692 251.6 12.5 251 13.7
2004-04-19 13:47:40 51°19.685 2°56.378 251.1 12.5 251 13.7
2004-04-19 13:48:40 51°19.618 2°56.063 251 12.5 251 13.7
2004-04-19 13:49:40 51°19.548 2°55.747 251.8 12.7 252 13.9
2004-04-19 13:50:40 51°19.479 2°55.429 251.1 12.6 250 13.9
2004-04-19 13:51:40 51°19.411 2°55.11 251.2 12.6 251 13.9
2004-04-19 13:52:40 51°19.342 2°54.795 251.1 12.6 251 13.9
2004-04-19 13:53:40 51°19.272 2°54.477 250.7 12.6 251 14.1
2004-04-19 13:54:40 51°19.202 2°54.162 251.7 12.7 251 14.2
2004-04-19 13:55:39 51°19.135 2°53.85 251.8 12.6 251 14.2
2004-04-19 13:56:40 51°19.062 2°53.527 251.8 12.7 251 14.1
2004-04-19 13:57:40 51°18.991 2°53.211 252 12.7 250 14.1
2004-04-19 13:58:40 51°18.918 2°52.894 251.1 12.8 251 14.1
2004-04-19 13:59:40 51°18.847 2°52.573 250.8 12.7 249 14.3
2004-04-19 14:00:40 51°18.777 2°52.253 251.8 12.8 251 14.7
2004-04-19 14:01:40 51°18.705 2°51.934 251.1 12.8 250 15.2
2004-04-19 14:02:40 51°18.633 2°51.617 251.3 12.7 250 15.5
2004-04-19 14:03:40 51°18.564 2°51.306 251.3 11.1 250 15.8
2004-04-19 14:04:40 51°18.513 2°51.116 241.5 5.7 242 16.1
2004-04-19 14:05:40 51°18.494 2°51.011 255.6 2.4 268 16
2004-04-19 14:06:40 51°18.505 2°50.996 262.8 0.9 355 16.1
2004-04-19 14:07:40 51°18.522 2°50.995 273.5 1.1 2 16.1
2004-04-19 14:08:40 51°18.54 2°50.991 265.6 1 342 16.2
2004-04-19 14:09:40 51°18.552 2°50.983 245.8 0.6 333 16.3
2004-04-19 14:10:40 51°18.556 2°50.98 225.1 0.2 2 16.2
2004-04-19 14:11:40 51°18.553 2°50.984 203.4 0.7 155 16.2
2004-04-19 14:12:40 51°18.454 2°51.097 151.3 11.9 142 15.7
2004-04-19 14:13:40 51°18.276 2°51.305 150.5 13.5 140 14.6
2004-04-19 14:14:40 51°18.102 2°51.528 148.8 13.5 141 13.2
2004-04-19 14:15:40 51°17.931 2°51.756 147.1 13.5 139 12.4
2004-04-19 14:16:40 51°17.761 2°51.988 148.1 13.4 139 12.3
2004-04-19 14:17:40 51°17.59 2°52.219 149.5 13.4 140 12.2
2004-04-19 14:18:40 51°17.418 2°52.45 147.6 13.4 139 12.3
2004-04-19 14:19:40 51°17.247 2°52.68 148 13.8 140 11.7
2004-04-19 14:20:40 51°17.083 2°52.934 140.9 13.7 134 11.1
2004-04-19 14:21:40 51°16.93 2°53.203 141.5 13.6 131 10.2
2004-04-19 14:22:40 51°16.776 2°53.483 139.9 14.3 131 13.2
2004-04-19 14:23:40 51°16.622 2°53.759 141.6 13.9 134 13.9
2004-04-19 14:24:40 51°16.466 2°54.031 141.6 13.8 134 13.8
2004-04-19 14:25:40 51°16.367 2°54.254 128.4 7.3 119 13.7
2004-04-19 14:26:40 51°16.308 2°54.335 183.9 3.3 164 13.6
2004-04-19 14:27:40 51°16.283 2°54.344 204.6 0.6 107 13.7
2004-04-19 14:28:40 51°16.281 2°54.356 206.1 0.5 98 13.7
2004-04-19 14:29:40 51°16.28 2°54.37 206.1 0.5 86 13.6
2004-04-19 14:30:40 51°16.283 2°54.384 206.1 0.6 78 13.6
2004-04-19 14:31:40 51°16.286 2°54.399 207.5 0.6 67 13.4
2004-04-19 14:32:40 51°16.29 2°54.414 209.7 0.6 62 13.6
2004-04-19 14:33:40 51°16.271 2°54.415 201 4.5 190 13.4
2004-04-19 14:34:40 51°16.114 2°54.397 188.1 12.5 182 13.1
2004-04-19 14:35:40 51°15.897 2°54.405 181.3 13.2 176 12.5
2004-04-19 14:36:40 51°15.678 2°54.428 180.1 13.3 175 11.7
2004-04-19 14:37:40 51°15.457 2°54.46 181.1 13.3 176 11
2004-04-19 14:38:40 51°15.237 2°54.502 179.1 13.2 172 10.4
2004-04-19 14:39:40 51°15.024 2°54.587 172.6 13.2 163 10
2004-04-19 14:40:40 51°14.81 2°54.681 169.9 13.5 163 11
2004-04-19 14:41:40 51°14.606 2°54.822 160.5 13.5 149 11.3
2004-04-19 14:42:40 51°14.418 2°55.016 148.7 13.1 143 12.1
2004-04-19 14:43:40 51°14.296 2°55.208 135.7 7.8 132 12.9
2004-04-19 14:44:40 51°14.223 2°55.336 137.1 6 133 12.8
2004-04-19 14:45:40 51°14.147 2°55.436 153.3 6 149 12.7
2004-04-19 14:46:40 51°14.053 2°55.5 163.4 6.2 160 12.6
2004-04-19 14:47:40 51°13.954 2°55.561 163.7 6.7 159 11.9
2004-04-19 14:48:40 51°13.85 2°55.627 161.4 6.7 158 11.5
2004-04-19 14:49:40 51°13.752 2°55.711 146.6 6.7 141 11.1
2004-04-19 14:50:40 51°13.678 2°55.844 130 6.2 126 11.4
2004-04-19 14:51:40 51°13.636 2°55.957 120.7 4.4 117 11.6
2004-04-19 14:52:40 51°13.609 2°56.053 117.5 3.3 112 10.9
2004-04-19 14:53:40 51°13.598 2°56.09 123.7 0.3 310 8.9
2004-04-19 14:54:40 51°13.596 2°56.095 125 0.4 128 8.7